Time;durP1;ratioP1;P1;durP2;ratioP2;P2;SDS_P1;SDS_P2;PMS_P1;PMS_P2;Temp;Humidity;BMP_temperature;BMP_pressure;BME280_temperature;BME280_humidity;BME280_pressure;Samples;Min_cycle;Max_cycle;Signal;HPM_P1;HPM_P2
2022/03/05 00:00:47;;;;;;;23.15;14.57;;;10.20;69.40;;;;;;10945069;32;20045;-73
2022/03/05 00:06:50;;;;;;;20.92;13.05;;;10.10;68.40;;;;;;10931557;32;20015;-73
2022/03/05 00:12:52;;;;;;;21.35;13.57;;;9.90;68.70;;;;;;10944592;32;20023;-73
2022/03/05 00:18:54;;;;;;;17.10;11.90;;;9.90;69.20;;;;;;10944437;32;20049;-73
2022/03/05 00:24:56;;;;;;;22.73;12.88;;;9.80;68.60;;;;;;10944414;32;20015;-73
2022/03/05 00:31:00;;;;;;;17.90;10.80;;;9.70;69.10;;;;;;10944121;32;20433;-73
2022/03/05 00:37:05;;;;;;;20.58;13.35;;;9.70;69.50;;;;;;10943669;32;20050;-73
2022/03/05 00:43:07;;;;;;;21.08;12.37;;;9.70;70.30;;;;;;10943673;32;20358;-72
2022/03/05 00:49:09;;;;;;;19.77;11.25;;;9.70;70.10;;;;;;10943341;32;20050;-73
2022/03/05 00:55:12;;;;;;;22.95;14.07;;;9.90;71.40;;;;;;10943233;32;20027;-73
2022/03/05 01:01:13;;;;;;;18.00;10.75;;;10.00;70.70;;;;;;10943117;32;20019;-73
2022/03/05 01:07:16;;;;;;;20.02;10.07;;;9.80;71.80;;;;;;10942857;32;20041;-73
2022/03/05 01:13:18;;;;;;;18.48;13.23;;;9.70;71.90;;;;;;10942743;32;20019;-73
2022/03/05 01:19:20;;;;;;;22.58;13.88;;;9.70;72.40;;;;;;10942531;32;20387;-73
2022/03/05 01:25:22;;;;;;;12.63;8.43;;;9.70;72.10;;;;;;10925183;32;20045;-73
2022/03/05 01:31:24;;;;;;;13.18;8.40;;;9.70;72.10;;;;;;10942321;32;20358;-72
2022/03/05 01:37:26;;;;;;;25.58;11.27;;;9.70;72.60;;;;;;10926680;32;20018;-73
2022/03/05 01:44:07;;;;;;;17.23;11.73;;;9.80;72.60;;;;;;10937683;32;20019;-73
2022/03/05 01:51:02;;;;;;;11.27;6.97;;;9.70;72.60;;;;;;10947371;32;20019;-72
2022/03/05 01:57:20;;;;;;;15.45;8.95;;;9.70;72.90;;;;;;10797472;33;20051;-73
2022/03/05 02:03:22;;;;;;;17.67;9.02;;;9.70;73.00;;;;;;10795349;33;20144;-72
2022/03/05 02:09:24;;;;;;;14.32;8.95;;;9.70;73.20;;;;;;10796430;33;20329;-72
2022/03/05 02:15:27;;;;;;;16.30;8.80;;;9.70;72.70;;;;;;10795635;33;20058;-72
2022/03/05 02:21:29;;;;;;;28.87;15.80;;;9.60;72.60;;;;;;10795528;33;20027;-72
2022/03/05 02:27:31;;;;;;;16.25;10.60;;;9.60;72.40;;;;;;10778989;32;20505;-72
2022/03/05 02:33:34;;;;;;;25.05;15.25;;;9.60;71.80;;;;;;10945889;32;20027;-72
2022/03/05 02:39:36;;;;;;;19.45;11.77;;;9.60;72.30;;;;;;10948029;32;20042;-72
2022/03/05 02:45:39;;;;;;;19.52;10.65;;;9.50;72.20;;;;;;10934390;32;20018;-72
2022/03/05 02:51:40;;;;;;;19.00;12.07;;;9.50;72.50;;;;;;10947644;32;20318;-72
2022/03/05 02:57:43;;;;;;;16.85;10.23;;;9.40;71.80;;;;;;10943120;32;20023;-72
2022/03/05 03:03:45;;;;;;;23.10;15.88;;;9.20;71.40;;;;;;10947248;32;20011;-72
2022/03/05 03:10:12;;;;;;;20.40;13.02;;;9.20;71.60;;;;;;10947118;32;20018;-72
2022/03/05 03:16:15;;;;;;;18.52;10.82;;;9.00;71.60;;;;;;10946654;32;20065;-72
2022/03/05 03:22:18;;;;;;;19.35;12.48;;;9.00;71.20;;;;;;10946779;32;20437;-72
2022/03/05 03:28:20;;;;;;;24.73;15.70;;;8.90;71.20;;;;;;10945038;32;20046;-72
2022/03/05 03:34:28;;;;;;;20.30;13.27;;;8.90;70.90;;;;;;10946147;32;20023;-72
2022/03/05 03:40:30;;;;;;;21.40;14.20;;;8.90;70.90;;;;;;10946466;32;20053;-72
2022/03/05 03:46:33;;;;;;;22.30;13.20;;;8.90;70.30;;;;;;10946327;32;20383;-72
2022/03/05 03:52:37;;;;;;;26.12;15.57;;;8.80;69.90;;;;;;10945905;32;20061;-72
2022/03/05 03:58:39;;;;;;;25.17;14.50;;;8.70;69.80;;;;;;10945845;32;20019;-72
2022/03/05 04:04:42;;;;;;;25.12;14.18;;;8.70;69.20;;;;;;10945684;32;20438;-72
2022/03/05 04:11:00;;;;;;;18.98;9.90;;;8.80;69.40;;;;;;10944968;32;20053;-72
2022/03/05 04:17:02;;;;;;;20.35;13.38;;;8.70;69.30;;;;;;10931618;32;20050;-72
2022/03/05 04:23:04;;;;;;;21.83;14.32;;;8.50;69.60;;;;;;10941852;32;20045;-72
2022/03/05 04:29:07;;;;;;;17.02;10.60;;;8.40;69.50;;;;;;10944137;32;20323;-72
2022/03/05 04:35:09;;;;;;;17.95;12.30;;;8.30;69.50;;;;;;10943900;32;20053;-72
2022/03/05 04:41:11;;;;;;;17.17;10.65;;;8.20;69.90;;;;;;10943875;32;20015;-72
2022/03/05 04:47:13;;;;;;;19.50;11.50;;;8.30;70.20;;;;;;10942754;32;20049;-72
2022/03/05 04:53:15;;;;;;;21.70;13.23;;;8.20;70.00;;;;;;10943437;32;20042;-73
2022/03/05 04:59:17;;;;;;;21.27;14.35;;;8.20;69.90;;;;;;10943155;32;20030;-72
2022/03/05 05:05:19;;;;;;;22.80;12.48;;;8.20;70.00;;;;;;10943021;32;20023;-72
2022/03/05 05:11:21;;;;;;;19.15;13.32;;;8.20;69.90;;;;;;10942814;32;20081;-72
2022/03/05 05:17:23;;;;;;;16.58;10.48;;;8.10;70.00;;;;;;10963943;27;20053;-72
2022/03/05 05:23:26;;;;;;;23.15;16.05;;;8.10;70.20;;;;;;10979421;32;20019;-73
2022/03/05 05:29:29;;;;;;;20.75;13.90;;;8.10;70.70;;;;;;10979919;32;20027;-73
2022/03/05 05:35:31;;;;;;;22.98;16.65;;;8.10;69.80;;;;;;10979773;32;20030;-72
2022/03/05 05:41:34;;;;;;;22.05;13.88;;;8.10;69.80;;;;;;10979605;32;20034;-72
2022/03/05 05:47:36;;;;;;;22.60;14.73;;;8.00;69.80;;;;;;10979701;32;20045;-72
2022/03/05 05:53:38;;;;;;;18.48;12.37;;;8.00;70.00;;;;;;10979329;32;20061;-72
2022/03/05 05:59:40;;;;;;;13.60;8.70;;;8.10;70.30;;;;;;10979406;32;20041;-72
2022/03/05 06:05:42;;;;;;;22.55;13.62;;;8.10;70.10;;;;;;10965806;32;20019;-72
2022/03/05 06:11:44;;;;;;;18.85;11.65;;;8.10;70.20;;;;;;10979116;32;20315;-72
2022/03/05 06:17:47;;;;;;;20.85;13.80;;;8.10;69.70;;;;;;10965551;32;20045;-72
2022/03/05 06:23:49;;;;;;;21.60;12.10;;;8.10;70.00;;;;;;10978513;32;20405;-72
2022/03/05 06:29:51;;;;;;;21.37;11.73;;;8.10;70.40;;;;;;10978737;32;20042;-72
2022/03/05 06:35:54;;;;;;;21.00;13.45;;;8.10;70.40;;;;;;10983367;32;20027;-72
2022/03/05 06:41:57;;;;;;;20.35;12.55;;;8.20;70.80;;;;;;10983457;32;20023;-72
2022/03/05 06:47:59;;;;;;;22.95;14.10;;;8.20;70.40;;;;;;10985565;32;20045;-72
2022/03/05 06:54:01;;;;;;;23.23;14.18;;;8.20;70.40;;;;;;10985265;32;20049;-72
2022/03/05 07:00:04;;;;;;;18.23;11.60;;;8.30;70.50;;;;;;10984985;32;20034;-72
2022/03/05 07:06:06;;;;;;;13.38;8.45;;;8.30;71.30;;;;;;10984711;32;20023;-72
2022/03/05 07:12:09;;;;;;;17.65;9.95;;;8.30;71.50;;;;;;10971093;32;20026;-72
2022/03/05 07:18:12;;;;;;;16.83;11.30;;;8.40;71.80;;;;;;10984377;32;20059;-72
2022/03/05 07:24:15;;;;;;;13.55;8.02;;;8.40;72.20;;;;;;10983882;32;20015;-72
2022/03/05 07:30:17;;;;;;;13.55;9.27;;;8.50;72.30;;;;;;10983542;32;20031;-73
2022/03/05 07:36:19;;;;;;;17.77;11.73;;;8.60;72.20;;;;;;10983289;32;20334;-72
2022/03/05 07:42:21;;;;;;;13.05;7.07;;;8.60;72.30;;;;;;10983483;32;20046;-72
2022/03/05 07:48:27;;;;;;;14.45;8.60;;;8.50;71.90;;;;;;10982551;32;20026;-72
2022/03/05 07:54:29;;;;;;;18.23;11.15;;;8.40;72.20;;;;;;10983144;32;20031;-73
2022/03/05 08:00:31;;;;;;;23.77;15.15;;;8.40;72.20;;;;;;10978628;32;20362;-72
2022/03/05 08:06:34;;;;;;;14.35;9.38;;;8.30;71.10;;;;;;10982818;32;20022;-73
2022/03/05 08:12:59;;;;;;;14.32;8.40;;;8.20;72.00;;;;;;10982247;32;20019;-72
2022/03/05 08:19:00;;;;;;;23.42;14.00;;;8.40;71.10;;;;;;10979300;32;20027;-73
2022/03/05 08:25:03;;;;;;;19.98;12.50;;;8.30;70.00;;;;;;10982100;32;20303;-73
2022/03/05 08:31:05;;;;;;;15.75;10.98;;;8.20;68.60;;;;;;10981813;32;20023;-73
2022/03/05 08:37:07;;;;;;;12.20;8.25;;;8.20;70.80;;;;;;10981350;32;20023;-73
2022/03/05 08:43:09;;;;;;;11.73;7.05;;;8.20;70.80;;;;;;10981608;32;20045;-72
2022/03/05 08:49:11;;;;;;;16.62;10.27;;;8.30;71.60;;;;;;10981215;32;20045;-73
2022/03/05 08:55:16;;;;;;;16.60;9.98;;;8.40;71.10;;;;;;10980554;32;20031;-72
2022/03/05 09:01:20;;;;;;;12.98;9.70;;;8.40;70.30;;;;;;10962437;32;20312;-72
2022/03/05 09:07:22;;;;;;;12.55;8.20;;;8.50;69.30;;;;;;10976124;32;20378;-72
2022/03/05 09:13:25;;;;;;;13.07;8.57;;;8.50;68.20;;;;;;10978429;32;20030;-73
2022/03/05 09:19:27;;;;;;;12.48;7.25;;;8.40;66.20;;;;;;10978599;32;20027;-73
2022/03/05 09:25:30;;;;;;;12.93;8.30;;;8.40;67.30;;;;;;10978576;32;20038;-73
2022/03/05 09:31:32;;;;;;;10.60;5.82;;;8.50;68.20;;;;;;10980664;32;20080;-73
2022/03/05 09:37:34;;;;;;;10.25;6.40;;;8.70;67.10;;;;;;10977017;32;20045;-73
2022/03/05 09:43:37;;;;;;;12.37;7.72;;;8.70;66.80;;;;;;10966158;32;20023;-73
2022/03/05 09:49:39;;;;;;;11.95;6.68;;;8.80;66.20;;;;;;10979150;32;20041;-73
2022/03/05 09:55:42;;;;;;;14.05;8.93;;;8.80;65.10;;;;;;10978642;32;20053;-72
2022/03/05 10:01:45;;;;;;;12.20;7.37;;;8.80;67.30;;;;;;10978848;32;20038;-73
2022/03/05 10:08:10;;;;;;;17.17;6.45;;;8.90;68.00;;;;;;10980116;32;20343;-72
2022/03/05 10:14:16;;;;;;;12.95;7.78;;;9.00;64.90;;;;;;10986631;32;20026;-73
2022/03/05 10:20:23;;;;;;;12.57;7.45;;;9.20;65.20;;;;;;10986135;32;20061;-72
2022/03/05 10:26:25;;;;;;;12.70;7.25;;;9.20;65.90;;;;;;10986198;32;20018;-72
2022/03/05 10:32:27;;;;;;;11.38;6.28;;;9.30;65.30;;;;;;10985986;32;20031;-71
2022/03/05 10:38:49;;;;;;;12.88;6.95;;;9.30;63.80;;;;;;10985752;32;20038;-73
2022/03/05 10:45:06;;;;;;;9.88;6.90;;;9.50;65.80;;;;;;10985266;32;20057;-72
2022/03/05 10:51:17;;;;;;;10.27;7.07;;;9.60;65.60;;;;;;10984684;32;20022;-72
2022/03/05 10:57:24;;;;;;;10.15;5.55;;;9.70;63.50;;;;;;10984457;32;20057;-72
2022/03/05 11:03:28;;;;;;;9.60;5.80;;;9.90;62.40;;;;;;10966256;32;20031;-74
2022/03/05 11:09:35;;;;;;;10.98;7.00;;;10.20;60.70;;;;;;10946251;32;20078;-72
2022/03/05 11:15:39;;;;;;;10.63;6.62;;;10.30;61.60;;;;;;10946763;32;20035;-72
2022/03/05 11:21:41;;;;;;;11.68;6.47;;;10.50;62.20;;;;;;10941252;32;20045;-72
2022/03/05 11:28:00;;;;;;;12.10;5.87;;;10.70;61.40;;;;;;10946052;32;20350;-72
2022/03/05 11:34:13;;;;;;;9.40;5.60;;;11.20;59.90;;;;;;10944169;32;20461;-73
2022/03/05 11:40:42;;;;;;;11.10;6.30;;;11.40;58.20;;;;;;10945910;32;20003;-72
2022/03/05 11:46:45;;;;;;;12.57;8.10;;;11.50;58.20;;;;;;10948595;32;20053;-73
2022/03/05 11:53:03;;;;;;;10.30;6.25;;;11.70;56.20;;;;;;10945318;32;20049;-73
2022/03/05 11:59:28;;;;;;;9.23;4.95;;;11.70;54.30;;;;;;10945367;32;20019;-73
2022/03/05 12:05:44;;;;;;;11.25;7.35;;;11.80;53.70;;;;;;10945131;32;20066;-73
2022/03/05 12:11:59;;;;;;;11.02;7.20;;;11.90;53.60;;;;;;10945016;32;20011;-73
2022/03/05 12:18:04;;;;;;;6.85;4.35;;;12.00;54.70;;;;;;10944599;32;20027;-73
2022/03/05 12:24:10;;;;;;;9.25;5.15;;;12.00;55.80;;;;;;10942920;32;20045;-72
2022/03/05 12:30:15;;;;;;;9.93;4.85;;;12.20;55.10;;;;;;10981863;32;20054;-73
2022/03/05 12:36:18;;;;;;;9.88;5.05;;;12.40;56.80;;;;;;10964841;32;20018;-72
2022/03/05 12:42:23;;;;;;;12.45;8.70;;;12.60;55.40;;;;;;10958319;32;20045;-73
2022/03/05 12:48:26;;;;;;;9.07;6.40;;;12.60;57.80;;;;;;10943524;32;20014;-73
2022/03/05 12:54:28;;;;;;;11.75;5.95;;;12.40;56.20;;;;;;10943560;32;20019;-73
2022/03/05 13:00:31;;;;;;;9.27;6.93;;;12.70;55.90;;;;;;10932013;32;20019;-74
2022/03/05 13:06:33;;;;;;;7.35;4.80;;;12.70;52.70;;;;;;10956280;32;20081;-73
2022/03/05 13:12:40;;;;;;;8.32;6.35;;;12.40;54.80;;;;;;10980129;32;20076;-72
2022/03/05 13:18:43;;;;;;;9.23;5.22;;;12.40;54.30;;;;;;10575218;27;11813460;-73
2022/03/05 13:24:50;;;;;;;7.30;5.53;;;12.50;54.90;;;;;;10930291;32;20054;-72
2022/03/05 13:30:58;;;;;;;10.85;6.70;;;12.60;54.90;;;;;;10898373;32;20051;-73
2022/03/05 13:37:07;;;;;;;11.35;7.80;;;12.70;53.80;;;;;;10894658;32;20338;-73
2022/03/05 13:43:09;;;;;;;9.50;6.55;;;12.60;54.90;;;;;;10936330;32;20030;-73
2022/03/05 13:49:16;;;;;;;8.85;6.20;;;12.60;53.80;;;;;;10941779;32;20015;-73
2022/03/05 13:55:20;;;;;;;7.80;5.95;;;12.70;53.40;;;;;;10978999;32;20057;-72
2022/03/05 14:01:34;;;;;;;11.98;7.37;;;12.90;53.20;;;;;;10949943;32;20034;-73
2022/03/05 14:07:41;;;;;;;9.82;6.22;;;13.10;53.50;;;;;;10978581;32;20050;-73
2022/03/05 14:13:47;;;;;;;8.60;4.62;;;13.00;52.40;;;;;;10948923;32;20066;-74
2022/03/05 14:19:50;;;;;;;10.95;6.50;;;13.00;53.10;;;;;;10957253;32;20034;-74
2022/03/05 14:25:54;;;;;;;9.57;6.37;;;13.00;50.80;;;;;;10958639;32;20030;-74
2022/03/05 14:31:56;;;;;;;9.35;6.60;;;13.10;49.80;;;;;;10948539;32;20054;-74
2022/03/05 14:37:59;;;;;;;10.35;6.53;;;13.30;48.90;;;;;;10938096;32;20049;-74
2022/03/05 14:44:01;;;;;;;8.88;5.00;;;13.60;47.40;;;;;;10940470;32;20031;-72
2022/03/05 14:50:05;;;;;;;8.48;6.18;;;13.80;47.90;;;;;;10966421;32;20085;-72
2022/03/05 14:56:08;;;;;;;9.27;6.25;;;13.80;49.50;;;;;;10971833;32;20350;-72
2022/03/05 15:02:10;;;;;;;10.18;6.65;;;13.80;49.60;;;;;;10948335;32;20031;-72
2022/03/05 15:08:12;;;;;;;13.20;7.75;;;13.70;51.90;;;;;;10953506;32;20057;-72
2022/03/05 15:14:14;;;;;;;11.05;6.93;;;13.70;52.30;;;;;;10970393;32;20338;-73
2022/03/05 15:20:16;;;;;;;13.95;7.10;;;13.80;50.70;;;;;;10970603;32;20049;-72
2022/03/05 15:26:19;;;;;;;18.37;8.82;;;14.10;49.70;;;;;;10972797;32;20038;-72
2022/03/05 15:32:21;;;;;;;12.60;8.07;;;14.20;50.40;;;;;;10972989;32;20057;-72
2022/03/05 15:38:23;;;;;;;18.20;7.43;;;14.30;49.80;;;;;;10970120;32;20085;-72
2022/03/05 15:44:26;;;;;;;14.20;9.90;;;14.50;49.00;;;;;;10945333;32;20031;-72
2022/03/05 15:50:28;;;;;;;14.02;9.25;;;14.50;50.30;;;;;;10945467;32;20343;-72
2022/03/05 15:56:34;;;;;;;14.85;9.40;;;14.20;50.00;;;;;;10942645;32;20411;-72
2022/03/05 16:02:39;;;;;;;8.57;5.75;;;14.30;50.40;;;;;;10931733;32;20022;-72
2022/03/05 16:08:42;;;;;;;13.95;8.80;;;14.70;49.70;;;;;;10941460;32;20031;-73
2022/03/05 16:14:45;;;;;;;19.12;9.77;;;15.10;48.70;;;;;;10944566;32;20343;-72
2022/03/05 16:20:49;;;;;;;11.40;7.85;;;14.90;48.20;;;;;;10931119;32;20031;-72
2022/03/05 16:26:53;;;;;;;19.23;9.52;;;14.40;47.60;;;;;;10930903;32;20030;-72
2022/03/05 16:32:58;;;;;;;12.57;7.57;;;14.30;48.10;;;;;;10944133;32;20035;-72
2022/03/05 16:39:04;;;;;;;9.90;5.70;;;13.70;48.50;;;;;;10953286;32;20027;-72
2022/03/05 16:45:34;;;;;;;53.78;33.08;;;13.10;49.50;;;;;;10963102;32;20399;-72
2022/03/05 16:52:03;;;;;;;24.40;19.25;;;12.50;50.50;;;;;;10968486;32;20030;-72
2022/03/05 16:58:05;;;;;;;29.17;17.48;;;12.00;52.00;;;;;;10966223;32;20038;-72
2022/03/05 17:04:07;;;;;;;15.55;9.98;;;11.50;51.40;;;;;;10980283;32;20042;-72
2022/03/05 17:10:13;;;;;;;19.95;11.90;;;11.00;52.70;;;;;;10978805;32;20065;-72
2022/03/05 17:16:15;;;;;;;14.87;10.25;;;10.70;53.90;;;;;;10976984;32;20343;-72
2022/03/05 17:22:18;;;;;;;14.05;8.52;;;10.60;54.80;;;;;;10928926;32;20035;-72
2022/03/05 17:28:57;;;;;;;18.33;10.38;;;10.60;55.20;;;;;;10939739;32;20023;-71
2022/03/05 17:35:00;;;;;;;16.92;9.25;;;10.50;55.40;;;;;;10941792;32;20039;-72
2022/03/05 17:41:02;;;;;;;31.73;9.02;;;10.30;56.00;;;;;;10939907;32;20045;-72
2022/03/05 17:47:04;;;;;;;11.52;7.00;;;10.20;56.00;;;;;;10942036;32;20081;-71
2022/03/05 17:53:07;;;;;;;11.82;7.47;;;10.20;56.00;;;;;;10941761;32;20038;-72
2022/03/05 17:59:09;;;;;;;14.48;8.30;;;10.10;56.40;;;;;;10942861;32;20023;-72
2022/03/05 18:05:11;;;;;;;12.70;8.73;;;10.00;57.00;;;;;;10941432;32;20022;-73
2022/03/05 18:11:14;;;;;;;17.60;9.50;;;9.90;57.20;;;;;;10938079;32;20445;-72
2022/03/05 18:17:16;;;;;;;10.00;6.32;;;9.80;56.90;;;;;;10941181;32;20323;-72
2022/03/05 18:23:18;;;;;;;15.43;10.00;;;9.70;57.80;;;;;;10940505;32;20053;-73
2022/03/05 18:29:21;;;;;;;24.35;9.20;;;9.70;57.80;;;;;;10929424;32;20331;-72
2022/03/05 18:35:23;;;;;;;16.40;9.00;;;9.60;57.90;;;;;;10948029;32;20061;-72
2022/03/05 18:41:27;;;;;;;17.20;8.98;;;9.60;58.20;;;;;;10934504;32;20027;-72
2022/03/05 18:47:30;;;;;;;15.27;8.82;;;9.50;58.20;;;;;;10934568;32;20024;-73
2022/03/05 18:53:32;;;;;;;23.77;12.63;;;9.50;58.80;;;;;;10934448;32;20322;-72
2022/03/05 19:00:07;;;;;;;10.13;5.97;;;9.60;59.40;;;;;;10944714;32;20011;-72
2022/03/05 19:06:09;;;;;;;15.52;9.60;;;9.70;60.10;;;;;;10947379;32;20027;-72
2022/03/05 19:12:17;;;;;;;19.00;7.50;;;9.70;60.70;;;;;;10950741;32;20045;-72
2022/03/05 19:18:19;;;;;;;13.23;7.00;;;9.70;61.30;;;;;;10984569;32;20022;-72
2022/03/05 19:24:21;;;;;;;18.05;9.00;;;9.70;61.50;;;;;;10966766;32;20022;-72
2022/03/05 19:30:24;;;;;;;13.88;8.15;;;9.70;61.90;;;;;;10984082;32;20030;-72
2022/03/05 19:36:26;;;;;;;12.40;6.72;;;9.60;62.50;;;;;;10983494;32;20023;-72
2022/03/05 19:42:28;;;;;;;10.90;6.90;;;9.60;63.00;;;;;;10982910;32;20022;-72
2022/03/05 19:48:30;;;;;;;15.27;6.53;;;9.50;63.00;;;;;;10983637;32;20088;-72
2022/03/05 19:54:32;;;;;;;13.98;8.60;;;9.40;63.40;;;;;;10982944;32;20041;-72
2022/03/05 20:00:35;;;;;;;16.60;9.18;;;9.30;63.90;;;;;;10983349;32;20318;-71
2022/03/05 20:06:37;;;;;;;12.68;7.45;;;9.30;64.50;;;;;;10982882;32;20030;-72
2022/03/05 20:12:39;;;;;;;22.17;9.85;;;9.20;64.80;;;;;;10969262;32;20019;-72
2022/03/05 20:18:41;;;;;;;13.93;7.90;;;9.20;65.20;;;;;;10982284;32;20026;-72
2022/03/05 20:24:47;;;;;;;10.63;5.93;;;9.00;65.50;;;;;;10982332;32;20065;-72
2022/03/05 20:30:50;;;;;;;13.88;7.78;;;8.90;66.10;;;;;;10979661;32;20022;-72
2022/03/05 20:36:52;;;;;;;14.57;8.65;;;8.90;66.20;;;;;;10981057;32;20027;-72
2022/03/05 20:42:55;;;;;;;11.80;7.10;;;8.90;66.30;;;;;;10981624;32;20373;-72
2022/03/05 20:48:58;;;;;;;12.85;7.72;;;8.90;67.00;;;;;;10981463;32;20011;-72
2022/03/05 20:55:00;;;;;;;13.38;8.20;;;8.90;67.20;;;;;;10966973;32;20053;-72
2022/03/05 21:01:03;;;;;;;19.60;11.27;;;8.80;67.00;;;;;;10981032;32;20019;-72
2022/03/05 21:07:05;;;;;;;12.20;8.45;;;8.80;67.40;;;;;;10980293;32;20080;-72
2022/03/05 21:13:07;;;;;;;14.93;9.88;;;8.80;68.10;;;;;;10966654;32;20060;-72
2022/03/05 21:19:10;;;;;;;14.75;8.82;;;8.80;68.00;;;;;;10981386;27;20072;-73
2022/03/05 21:25:12;;;;;;;11.40;7.65;;;8.70;68.20;;;;;;10979232;32;20030;-73
2022/03/05 21:31:29;;;;;;;21.40;12.50;;;8.70;68.30;;;;;;11017972;32;20023;-74
2022/03/05 21:37:37;;;;;;;16.33;10.73;;;8.50;68.30;;;;;;11017867;32;20307;-73
2022/03/05 21:43:39;;;;;;;15.05;8.95;;;8.30;67.80;;;;;;11017700;32;20030;-73
2022/03/05 21:49:49;;;;;;;18.10;10.40;;;8.20;68.20;;;;;;11017702;32;20395;-73
2022/03/05 21:55:51;;;;;;;14.85;9.45;;;8.20;68.70;;;;;;11017469;32;20354;-72
2022/03/05 22:01:53;;;;;;;19.65;12.18;;;8.20;68.60;;;;;;11017581;32;20037;-73
2022/03/05 22:07:59;;;;;;;18.50;10.15;;;8.20;69.20;;;;;;11023701;32;20060;-73
2022/03/05 22:14:01;;;;;;;13.73;7.55;;;8.10;69.00;;;;;;11024801;32;20022;-73
2022/03/05 22:20:04;;;;;;;15.80;10.13;;;8.10;69.70;;;;;;11024675;32;20030;-73
2022/03/05 22:26:25;;;;;;;17.67;10.60;;;8.10;69.00;;;;;;11024473;32;20027;-73
2022/03/05 22:32:27;;;;;;;16.67;10.23;;;8.00;69.10;;;;;;11024385;32;20386;-73
2022/03/05 22:38:29;;;;;;;15.50;10.40;;;8.00;69.80;;;;;;11008581;32;20030;-73
2022/03/05 22:44:31;;;;;;;15.95;9.65;;;8.00;70.20;;;;;;11009022;32;20342;-73
2022/03/05 22:50:44;;;;;;;16.98;11.00;;;8.10;70.40;;;;;;11023616;32;20445;-73
2022/03/05 22:56:46;;;;;;;17.75;10.27;;;8.00;69.60;;;;;;11023446;32;20026;-73
2022/03/05 23:09:27;;;;;;;16.65;9.10;;;8.00;70.70;;;;;;11023666;32;20045;-73
2022/03/05 23:15:41;;;;;;;13.25;8.57;;;8.10;71.20;;;;;;11009543;32;20399;-73
2022/03/05 23:21:47;;;;;;;15.95;9.35;;;8.20;72.10;;;;;;11009161;32;20037;-72
2022/03/05 23:27:49;;;;;;;11.18;6.87;;;8.30;72.10;;;;;;11019182;32;20023;-72
2022/03/05 23:33:51;;;;;;;13.27;8.02;;;8.30;72.10;;;;;;11017854;32;20308;-72
2022/03/05 23:39:53;;;;;;;10.98;7.10;;;8.40;72.40;;;;;;11022014;32;20056;-72
2022/03/05 23:45:56;;;;;;;11.20;6.53;;;8.40;72.60;;;;;;11018328;32;20333;-73
2022/03/05 23:51:58;;;;;;;15.27;9.65;;;8.40;72.30;;;;;;11019633;32;20026;-73
2022/03/05 23:58:00;;;;;;;11.12;7.28;;;8.40;72.60;;;;;;11021240;32;20428;-73
